createdAt,value
2018-03-08T00:01:19.700Z,9.30
2018-03-08T00:03:47.057Z,8.40
2018-03-08T00:06:14.346Z,9.60
2018-03-08T00:08:41.380Z,9.10
2018-03-08T00:11:08.500Z,9.40
2018-03-08T00:13:35.559Z,8.85
2018-03-08T00:16:02.774Z,9.00
2018-03-08T00:18:29.935Z,8.73
2018-03-08T00:20:58.442Z,8.98
2018-03-08T00:23:26.927Z,9.82
2018-03-08T00:25:55.226Z,9.13
2018-03-08T00:28:23.686Z,9.95
2018-03-08T00:30:50.783Z,9.05
2018-03-08T00:33:17.714Z,8.88
2018-03-08T00:35:44.684Z,8.77
2018-03-08T00:38:11.627Z,11.20
2018-03-08T00:40:38.571Z,10.07
2018-03-08T00:43:05.517Z,9.75
2018-03-08T00:45:32.417Z,9.88
2018-03-08T00:47:59.354Z,10.38
2018-03-08T00:50:26.235Z,9.30
2018-03-08T00:52:53.188Z,10.93
2018-03-08T00:55:20.132Z,9.85
2018-03-08T00:57:47.007Z,9.40
2018-03-08T01:00:13.960Z,10.15
2018-03-08T01:02:40.932Z,9.95
2018-03-08T01:05:07.802Z,10.68
2018-03-08T01:07:34.727Z,8.68
2018-03-08T01:10:01.595Z,10.80
2018-03-08T01:12:28.527Z,10.10
2018-03-08T01:14:55.487Z,10.30
2018-03-08T01:17:22.356Z,11.45
2018-03-08T01:19:49.219Z,10.07
2018-03-08T01:22:16.151Z,10.55
2018-03-08T01:24:43.059Z,11.40
2018-03-08T01:27:09.951Z,11.95
2018-03-08T01:29:37.641Z,11.95
2018-03-08T01:32:05.361Z,11.40
2018-03-08T01:34:32.298Z,13.05
2018-03-08T01:36:59.249Z,10.80
2018-03-08T01:39:26.175Z,11.95
2018-03-08T01:41:53.038Z,11.70
2018-03-08T01:44:19.967Z,11.65
2018-03-08T01:46:46.830Z,12.20
2018-03-08T01:49:13.819Z,13.15
2018-03-08T01:51:53.539Z,11.77
2018-03-08T01:54:20.471Z,11.98
2018-03-08T01:56:47.398Z,13.27
2018-03-08T01:59:14.328Z,11.60
2018-03-08T02:01:41.191Z,13.40
2018-03-08T02:04:08.112Z,12.63
2018-03-08T02:06:35.044Z,13.27
2018-03-08T02:09:02.823Z,12.00
2018-03-08T02:11:29.768Z,11.30
2018-03-08T02:13:56.633Z,12.48
2018-03-08T02:16:23.499Z,11.48
2018-03-08T02:18:50.438Z,11.68
2018-03-08T02:21:17.322Z,11.50
2018-03-08T02:23:45.003Z,12.05
2018-03-08T02:26:11.900Z,11.30
2018-03-08T02:28:38.847Z,11.80
2018-03-08T02:31:05.721Z,11.88
2018-03-08T02:33:32.665Z,12.52
2018-03-08T02:35:59.528Z,13.30
2018-03-08T02:38:27.133Z,13.75
2018-03-08T02:40:54.071Z,11.50
2018-03-08T02:43:20.943Z,12.40
2018-03-08T02:45:48.649Z,12.73
2018-03-08T02:48:15.583Z,12.50
2018-03-08T02:50:43.275Z,12.37
2018-03-08T02:53:10.135Z,12.00
2018-03-08T02:55:37.028Z,12.85
2018-03-08T02:58:03.972Z,12.77
2018-03-08T03:00:30.838Z,12.98
2018-03-08T03:02:57.779Z,12.65
2018-03-08T03:05:25.447Z,14.02
2018-03-08T03:07:53.053Z,13.15
2018-03-08T03:10:19.986Z,12.07
2018-03-08T03:12:46.907Z,12.13
2018-03-08T03:15:13.849Z,13.30
2018-03-08T03:17:41.459Z,12.63
2018-03-08T03:20:08.400Z,11.27
2018-03-08T03:22:35.263Z,12.27
2018-03-08T03:25:02.126Z,12.65
2018-03-08T03:27:29.050Z,12.30
2018-03-08T03:29:55.977Z,10.98
2018-03-08T03:32:22.904Z,10.90
2018-03-08T03:34:49.765Z,10.73
2018-03-08T03:37:16.713Z,11.75
2018-03-08T03:39:43.579Z,11.63
2018-03-08T03:42:10.435Z,10.90
2018-03-08T03:44:38.102Z,11.12
2018-03-08T03:47:05.128Z,11.50
2018-03-08T03:49:32.118Z,10.98
2018-03-08T03:51:59.785Z,9.98
2018-03-08T03:54:26.655Z,10.48
2018-03-08T03:56:53.580Z,10.88
2018-03-08T03:59:20.533Z,11.35
2018-03-08T04:01:47.427Z,12.95
2018-03-08T04:04:14.282Z,11.43
2018-03-08T04:06:41.217Z,10.90
2018-03-08T04:09:08.067Z,11.18
2018-03-08T04:11:35.772Z,11.77
2018-03-08T04:14:02.691Z,11.00
2018-03-08T04:16:29.617Z,10.65
2018-03-08T04:18:56.486Z,11.65
2018-03-08T04:21:24.156Z,11.38
2018-03-08T04:23:51.781Z,11.20
2018-03-08T04:26:18.702Z,11.18
2018-03-08T04:28:45.567Z,11.25
2018-03-08T04:31:12.434Z,11.70
2018-03-08T04:33:39.355Z,12.50
2018-03-08T04:36:06.222Z,11.32
2018-03-08T04:38:33.172Z,10.25
2018-03-08T04:41:00.053Z,10.90
2018-03-08T04:43:26.914Z,12.07
2018-03-08T04:45:53.902Z,12.32
2018-03-08T04:48:20.767Z,11.70
2018-03-08T04:50:47.695Z,14.60
2018-03-08T04:53:14.539Z,12.37
2018-03-08T04:55:41.484Z,13.95
2018-03-08T04:58:08.347Z,12.75
2018-03-08T05:00:35.947Z,13.60
2018-03-08T05:03:02.881Z,15.30
2018-03-08T05:05:29.759Z,15.20
2018-03-08T05:07:56.711Z,14.20
2018-03-08T05:10:23.579Z,14.50
2018-03-08T05:12:50.519Z,15.68
2018-03-08T05:15:17.395Z,13.82
2018-03-08T05:17:44.330Z,14.48
2018-03-08T05:20:11.950Z,15.38
2018-03-08T05:22:38.887Z,16.20
2018-03-08T05:25:05.896Z,16.27
2018-03-08T05:27:32.844Z,14.27
2018-03-08T05:29:59.702Z,15.60
2018-03-08T05:32:26.579Z,14.50
2018-03-08T05:34:53.516Z,13.00
2018-03-08T05:37:20.469Z,14.10
2018-03-08T05:39:47.426Z,11.73
2018-03-08T05:42:21.695Z,14.07
2018-03-08T05:44:49.399Z,11.75
2018-03-08T05:47:17.063Z,13.45
2018-03-08T05:49:46.380Z,13.30
2018-03-08T05:52:13.668Z,11.73
2018-03-08T05:54:40.626Z,12.70
2018-03-08T05:57:07.595Z,11.90
2018-03-08T05:59:34.467Z,11.85
2018-03-08T06:02:01.403Z,11.15
2018-03-08T06:04:28.351Z,11.73
2018-03-08T06:06:55.218Z,11.75
2018-03-08T06:09:22.171Z,12.50
2018-03-08T06:11:49.867Z,11.12
2018-03-08T06:14:16.793Z,12.75
2018-03-08T06:16:50.440Z,10.95
2018-03-08T06:19:20.907Z,11.35
2018-03-08T06:21:50.440Z,11.52
2018-03-08T06:24:17.603Z,12.13
2018-03-08T06:26:44.541Z,10.43
2018-03-08T06:29:11.483Z,11.25
2018-03-08T06:31:38.340Z,10.15
2018-03-08T06:34:05.383Z,12.25
2018-03-08T06:36:32.345Z,10.65
2018-03-08T06:38:59.296Z,9.20
2018-03-08T06:41:26.300Z,11.85
2018-03-08T06:43:53.919Z,11.18
2018-03-08T06:46:20.867Z,10.60
2018-03-08T06:48:47.727Z,9.73
2018-03-08T06:51:14.733Z,10.40
2018-03-08T06:53:41.633Z,11.93
2018-03-08T06:56:08.568Z,9.88
2018-03-08T06:58:35.435Z,10.15
2018-03-08T07:01:02.300Z,11.20
2018-03-08T07:03:29.598Z,10.70
2018-03-08T07:06:01.751Z,9.23
2018-03-08T07:08:32.121Z,10.30
2018-03-08T07:11:01.981Z,10.67
2018-03-08T07:13:32.376Z,9.40
2018-03-08T07:16:00.078Z,10.27
2018-03-08T07:18:26.947Z,9.50
2018-03-08T07:21:01.857Z,10.67
2018-03-08T07:23:29.102Z,10.13
2018-03-08T07:25:56.228Z,10.33
2018-03-08T07:28:23.096Z,10.10
2018-03-08T07:30:50.139Z,8.80
2018-03-08T07:33:17.059Z,8.70
2018-03-08T07:35:43.948Z,9.03
2018-03-08T07:38:10.950Z,7.57
2018-03-08T07:40:38.565Z,8.00
2018-03-08T07:43:05.632Z,8.03
2018-03-08T07:45:33.047Z,7.10
2018-03-08T07:47:59.927Z,7.00
2018-03-08T07:50:28.072Z,6.97
2018-03-08T07:52:55.220Z,5.90
2018-03-08T07:55:22.151Z,6.60
2018-03-08T07:57:49.675Z,5.57
2018-03-08T08:00:16.553Z,6.27
2018-03-08T08:02:43.645Z,5.70
2018-03-08T08:05:23.963Z,5.80
2018-03-08T08:08:04.120Z,6.67
2018-03-08T08:10:31.612Z,5.90
2018-03-08T08:12:59.909Z,5.80
2018-03-08T08:15:27.988Z,6.20
2018-03-08T08:17:55.136Z,5.67
2018-03-08T08:20:22.059Z,6.90
2018-03-08T08:22:49.178Z,5.67
2018-03-08T08:25:17.715Z,5.20
2018-03-08T08:27:46.004Z,5.70
2018-03-08T08:30:14.421Z,5.27
2018-03-08T08:32:43.558Z,5.40
2018-03-08T08:35:10.496Z,5.83
2018-03-08T08:37:37.897Z,5.70
2018-03-08T08:40:05.101Z,5.50
2018-03-08T08:42:32.559Z,5.33
2018-03-08T08:44:59.531Z,5.23
2018-03-08T08:47:27.368Z,5.13
2018-03-08T08:49:54.901Z,5.20
2018-03-08T08:52:21.902Z,5.30
2018-03-08T08:54:49.088Z,5.20
2018-03-08T08:57:15.948Z,4.50
2018-03-08T08:59:42.908Z,4.97
2018-03-08T09:02:11.268Z,4.87
2018-03-08T09:04:40.232Z,5.20
2018-03-08T09:07:08.767Z,6.50
2018-03-08T09:09:37.041Z,5.47
2018-03-08T09:12:03.919Z,4.90
2018-03-08T09:14:30.788Z,5.80
2018-03-08T09:16:57.728Z,5.67
2018-03-08T09:19:24.607Z,6.20
2018-03-08T09:21:51.500Z,4.87
2018-03-08T09:24:18.427Z,5.60
2018-03-08T09:26:45.367Z,5.60
2018-03-08T09:29:12.320Z,5.47
2018-03-08T09:31:39.392Z,6.83
2018-03-08T09:34:06.255Z,5.00
2018-03-08T09:36:33.116Z,5.40
2018-03-08T09:39:00.048Z,4.43
2018-03-08T09:41:26.918Z,5.43
2018-03-08T09:43:53.884Z,5.50
2018-03-08T09:46:20.755Z,5.50
2018-03-08T09:48:47.636Z,5.47
2018-03-08T09:51:15.315Z,4.10
2018-03-08T09:53:49.136Z,4.67
2018-03-08T09:56:16.844Z,4.97
2018-03-08T09:58:43.704Z,4.13
2018-03-08T10:01:10.631Z,4.10
2018-03-08T10:03:37.498Z,4.40
2018-03-08T10:06:04.433Z,4.53
2018-03-08T10:08:31.313Z,4.43
2018-03-08T10:10:58.252Z,4.63
2018-03-08T10:13:25.244Z,5.40
2018-03-08T10:15:52.108Z,4.60
2018-03-08T10:18:18.968Z,5.17
2018-03-08T10:20:45.897Z,5.00
2018-03-08T10:23:12.824Z,5.00
2018-03-08T10:25:39.684Z,6.00
2018-03-08T10:28:06.540Z,6.50
2018-03-08T10:30:33.455Z,5.57
2018-03-08T10:33:00.321Z,4.73
2018-03-08T10:35:27.248Z,5.07
2018-03-08T10:37:54.183Z,5.23
2018-03-08T10:40:21.117Z,5.10
2018-03-08T10:42:47.979Z,5.37
2018-03-08T10:45:14.924Z,4.90
2018-03-08T10:47:41.815Z,4.97
2018-03-08T10:50:08.684Z,5.43
2018-03-08T10:52:36.353Z,4.60
2018-03-08T10:55:03.302Z,5.10
2018-03-08T10:57:30.219Z,4.30
2018-03-08T10:59:57.080Z,4.70
2018-03-08T11:02:30.195Z,4.30
2018-03-08T11:04:59.101Z,4.70
2018-03-08T11:07:26.080Z,4.57
2018-03-08T11:09:52.943Z,4.93
2018-03-08T11:12:19.884Z,4.67
2018-03-08T11:14:46.823Z,5.80
2018-03-08T11:17:13.704Z,4.30
2018-03-08T11:19:40.627Z,3.70
2018-03-08T11:22:07.475Z,3.73
2018-03-08T11:24:35.151Z,3.90
2018-03-08T11:27:02.013Z,4.80
2018-03-08T11:29:28.976Z,3.77
2018-03-08T11:31:55.895Z,3.90
2018-03-08T11:34:22.771Z,3.90
2018-03-08T11:36:49.708Z,4.83
2018-03-08T11:39:16.704Z,4.07
2018-03-08T11:41:43.628Z,4.03
2018-03-08T11:44:10.533Z,4.43
2018-03-08T11:46:37.544Z,3.57
2018-03-08T11:49:06.792Z,3.47
2018-03-08T11:51:44.339Z,4.03
2018-03-08T11:54:12.044Z,5.60
2018-03-08T11:56:40.505Z,3.83
2018-03-08T11:59:11.946Z,4.10
2018-03-08T12:01:39.562Z,5.80
2018-03-08T12:04:06.495Z,3.87
2018-03-08T12:06:37.314Z,5.20
2018-03-08T12:09:04.308Z,4.50
2018-03-08T12:11:45.165Z,3.00
2018-03-08T12:14:16.900Z,3.50
2018-03-08T12:16:43.824Z,2.60
2018-03-08T12:19:11.484Z,2.90
2018-03-08T12:21:39.139Z,2.83
2018-03-08T12:24:06.076Z,2.30
2018-03-08T12:26:33.002Z,2.60
2018-03-08T12:28:59.938Z,3.40
2018-03-08T12:31:29.110Z,2.43
2018-03-08T12:33:58.080Z,2.00
2018-03-08T12:36:25.748Z,2.27
2018-03-08T12:38:52.623Z,1.90
2018-03-08T12:41:19.495Z,2.23
2018-03-08T12:43:46.515Z,2.17
2018-03-08T12:46:15.286Z,3.10
2018-03-08T12:48:42.614Z,1.67
2018-03-08T12:51:10.295Z,1.93
2018-03-08T12:53:37.156Z,1.60
2018-03-08T12:56:04.128Z,2.57
2018-03-08T12:58:31.059Z,2.10
2018-03-08T13:01:01.541Z,1.77
2018-03-08T13:03:28.953Z,2.17
2018-03-08T13:05:55.828Z,1.93
2018-03-08T13:08:22.772Z,2.70
2018-03-08T13:10:49.719Z,2.17
2018-03-08T13:13:16.604Z,1.80
2018-03-08T13:15:43.532Z,1.90
2018-03-08T13:18:13.993Z,2.03
2018-03-08T13:20:40.867Z,1.93
2018-03-08T13:23:07.861Z,1.80
2018-03-08T13:25:45.708Z,2.03
2018-03-08T13:28:22.072Z,1.97
2018-03-08T13:30:59.694Z,1.50
2018-03-08T13:33:35.305Z,1.77
2018-03-08T13:36:11.541Z,2.63
2018-03-08T13:38:52.239Z,1.60
2018-03-08T13:41:33.798Z,2.33
2018-03-08T13:44:01.460Z,2.30
2018-03-08T13:46:29.119Z,2.00
2018-03-08T13:49:02.387Z,1.67
2018-03-08T13:51:41.978Z,1.93
2018-03-08T13:54:18.663Z,1.83
2018-03-08T13:56:59.612Z,1.73
2018-03-08T13:59:40.304Z,2.23
2018-03-08T14:02:20.779Z,1.97
2018-03-08T14:05:02.746Z,1.60
2018-03-08T14:07:30.632Z,1.90
2018-03-08T14:09:59.444Z,2.27
2018-03-08T14:12:29.664Z,1.80
2018-03-08T14:14:56.712Z,1.50
2018-03-08T14:17:24.834Z,1.60
2018-03-08T14:19:51.788Z,2.10
2018-03-08T14:22:18.660Z,2.00
2018-03-08T14:24:45.529Z,2.20
2018-03-08T14:27:12.487Z,2.03
2018-03-08T14:29:39.356Z,2.17
2018-03-08T14:32:06.287Z,2.10
2018-03-08T14:34:33.227Z,2.60
2018-03-08T14:37:00.087Z,2.10
2018-03-08T14:39:26.962Z,1.80
2018-03-08T14:41:53.950Z,2.40
2018-03-08T14:44:20.884Z,2.00
2018-03-08T14:46:47.828Z,1.30
2018-03-08T14:49:14.779Z,1.60
2018-03-08T14:51:41.640Z,2.43
2018-03-08T14:54:08.498Z,1.80
2018-03-08T14:56:35.418Z,1.67
2018-03-08T14:59:02.292Z,2.03
2018-03-08T15:01:29.400Z,2.20
2018-03-08T15:03:57.955Z,1.80
2018-03-08T15:06:26.849Z,2.30
2018-03-08T15:08:53.791Z,2.30
2018-03-08T15:11:20.773Z,2.13
2018-03-08T15:14:02.045Z,2.00
2018-03-08T15:16:30.997Z,1.90
2018-03-08T15:18:57.931Z,1.90
2018-03-08T15:21:25.705Z,1.80
2018-03-08T15:23:52.781Z,2.97
2018-03-08T15:26:20.655Z,2.37
2018-03-08T15:28:47.580Z,2.40
2018-03-08T15:31:14.595Z,2.60
2018-03-08T15:33:41.599Z,3.60
2018-03-08T15:36:08.461Z,2.10
2018-03-08T15:38:35.386Z,2.10
2018-03-08T15:41:05.029Z,2.77
2018-03-08T15:43:47.192Z,2.33
2018-03-08T15:46:16.231Z,1.60
2018-03-08T15:48:49.595Z,1.70
2018-03-08T15:51:21.269Z,1.70
2018-03-08T15:53:49.546Z,1.70
2018-03-08T15:56:22.254Z,1.30
2018-03-08T15:58:58.521Z,1.67
2018-03-08T16:01:38.188Z,1.60
2018-03-08T16:04:14.529Z,1.33
2018-03-08T16:07:01.998Z,1.60
2018-03-08T16:09:50.043Z,2.80
2018-03-08T16:12:28.278Z,1.90
2018-03-08T16:15:09.303Z,1.97
2018-03-08T16:17:37.680Z,1.70
2018-03-08T16:20:04.616Z,1.83
2018-03-08T16:22:33.689Z,1.30
2018-03-08T16:25:03.874Z,1.50
2018-03-08T16:27:33.602Z,1.70
2018-03-08T16:30:00.532Z,2.30
2018-03-08T16:32:30.183Z,2.00
2018-03-08T16:34:57.230Z,1.87
2018-03-08T16:37:24.458Z,1.20
2018-03-08T16:40:03.232Z,1.80
2018-03-08T16:42:41.511Z,1.20
2018-03-08T16:45:10.265Z,1.33
2018-03-08T16:47:37.323Z,1.93
2018-03-08T16:50:04.269Z,1.40
2018-03-08T16:52:44.496Z,1.90
2018-03-08T16:55:15.974Z,1.57
2018-03-08T16:57:52.392Z,1.90
2018-03-08T17:00:33.066Z,1.60
2018-03-08T17:03:14.665Z,1.50
2018-03-08T17:05:45.932Z,1.60
2018-03-08T17:08:12.890Z,1.30
2018-03-08T17:10:39.923Z,1.30
2018-03-08T17:13:07.686Z,1.40
2018-03-08T17:15:35.350Z,1.77
2018-03-08T17:18:06.778Z,1.60
2018-03-08T17:20:34.687Z,1.50
2018-03-08T17:23:06.607Z,1.67
2018-03-08T17:25:41.067Z,1.33
2018-03-08T17:28:23.167Z,1.33
2018-03-08T17:31:03.850Z,2.10
2018-03-08T17:33:43.945Z,1.30
2018-03-08T17:36:22.649Z,1.30
2018-03-08T17:39:02.770Z,1.50
2018-03-08T17:41:30.610Z,1.70
2018-03-08T17:44:00.619Z,1.10
2018-03-08T17:46:29.781Z,1.27
2018-03-08T17:48:56.785Z,1.20
2018-03-08T17:51:35.536Z,2.50
2018-03-08T17:54:17.609Z,2.60
2018-03-08T17:56:45.513Z,1.77
2018-03-08T17:59:23.116Z,1.70
2018-03-08T18:01:50.990Z,1.47
2018-03-08T18:04:17.916Z,1.50
2018-03-08T18:06:53.008Z,1.40
2018-03-08T18:09:19.912Z,1.50
2018-03-08T18:11:46.800Z,1.90
2018-03-08T18:14:13.733Z,1.77
2018-03-08T18:16:40.659Z,1.23
2018-03-08T18:19:07.604Z,1.13
2018-03-08T18:21:34.551Z,1.20
2018-03-08T18:24:01.520Z,1.63
2018-03-08T18:26:28.387Z,1.73
2018-03-08T18:28:55.459Z,1.50
2018-03-08T18:31:22.338Z,1.30
2018-03-08T18:33:49.250Z,1.60
2018-03-08T18:36:16.883Z,2.40
2018-03-08T18:38:43.740Z,2.30
2018-03-08T18:41:11.397Z,2.00
2018-03-08T18:43:38.377Z,1.40
2018-03-08T18:46:05.369Z,1.87
2018-03-08T18:48:32.248Z,2.10
2018-03-08T18:50:59.924Z,1.80
2018-03-08T18:53:26.813Z,1.37
2018-03-08T18:55:53.777Z,1.07
2018-03-08T18:58:24.802Z,1.47
2018-03-08T19:00:51.705Z,1.08
2018-03-08T19:03:18.663Z,0.93
2018-03-08T19:05:45.613Z,0.77
2018-03-08T19:08:18.573Z,0.53
2018-03-08T19:10:46.124Z,0.98
2018-03-08T19:13:13.812Z,0.90
2018-03-08T19:15:40.692Z,0.95
2018-03-08T19:18:07.550Z,0.62
2018-03-08T19:20:34.839Z,0.70
2018-03-08T19:23:06.349Z,0.67
2018-03-08T19:25:33.295Z,0.60
2018-03-08T19:28:04.529Z,0.98
2018-03-08T19:30:44.918Z,0.80
2018-03-08T19:33:25.307Z,0.80
2018-03-08T19:35:57.569Z,0.70
2018-03-08T19:38:25.312Z,0.73
2018-03-08T19:40:52.185Z,1.00
2018-03-08T19:43:25.929Z,1.00
2018-03-08T19:45:52.927Z,1.10
2018-03-08T19:48:29.505Z,1.45
2018-03-08T19:51:04.241Z,1.30
2018-03-08T19:53:32.152Z,0.80
2018-03-08T19:55:59.159Z,0.70
2018-03-08T19:58:33.514Z,1.73
2018-03-08T20:01:05.420Z,0.90
2018-03-08T20:03:32.342Z,0.70
2018-03-08T20:06:04.137Z,0.62
2018-03-08T20:08:34.676Z,0.75
2018-03-08T20:11:02.344Z,1.25
2018-03-08T20:13:38.823Z,0.70
2018-03-08T20:16:05.832Z,0.57
2018-03-08T20:18:34.462Z,0.82
2018-03-08T20:21:14.384Z,0.73
2018-03-08T20:23:53.463Z,0.57
2018-03-08T20:26:22.404Z,0.70
2018-03-08T20:28:57.639Z,0.95
2018-03-08T20:31:24.627Z,0.60
2018-03-08T20:33:51.804Z,0.57
2018-03-08T20:36:18.928Z,0.80
2018-03-08T20:38:54.788Z,0.70
2018-03-08T20:41:33.113Z,0.62
2018-03-08T20:44:01.836Z,0.75
2018-03-08T20:46:29.996Z,0.73
2018-03-08T20:49:01.277Z,0.70
2018-03-08T20:54:24.591Z,0.80
2018-03-08T20:56:53.061Z,2.45
2018-03-08T20:59:22.780Z,0.80
2018-03-08T21:01:52.501Z,0.85
2018-03-08T21:04:20.846Z,0.47
2018-03-08T21:06:59.096Z,0.90
2018-03-08T21:09:39.724Z,1.10
2018-03-08T21:12:21.405Z,0.80
2018-03-08T21:14:49.903Z,0.80
2018-03-08T21:17:17.806Z,0.70
2018-03-08T21:19:44.955Z,0.80
2018-03-08T21:22:12.571Z,0.85
2018-03-08T21:24:39.682Z,0.75
2018-03-08T21:27:09.986Z,1.02
2018-03-08T21:29:37.206Z,0.85
2018-03-08T21:32:04.292Z,0.85
2018-03-08T21:34:31.403Z,1.85
2018-03-08T21:36:58.354Z,0.70
2018-03-08T21:39:25.447Z,0.55
2018-03-08T21:41:53.229Z,1.00
2018-03-08T21:44:21.776Z,0.65
2018-03-08T21:46:48.968Z,0.60
2018-03-08T21:49:16.344Z,0.73
2018-03-08T21:51:43.343Z,1.20
2018-03-08T21:54:10.216Z,0.80
2018-03-08T21:56:37.680Z,0.62
2018-03-08T21:59:04.717Z,0.82
2018-03-08T22:01:32.524Z,1.00
2018-03-08T22:04:00.239Z,1.40
2018-03-08T22:06:27.252Z,1.70
2018-03-08T22:08:54.871Z,1.02
2018-03-08T22:11:21.748Z,0.93
2018-03-08T22:13:49.429Z,0.80
2018-03-08T22:16:16.382Z,1.08
2018-03-08T22:18:43.439Z,1.02
2018-03-08T22:21:10.314Z,0.80
2018-03-08T22:23:38.276Z,1.20
2018-03-08T22:26:06.420Z,0.80
2018-03-08T22:28:35.869Z,0.80
2018-03-08T22:31:04.979Z,1.00
2018-03-08T22:33:31.840Z,0.80
2018-03-08T22:36:00.669Z,1.05
2018-03-08T22:38:29.644Z,1.45
2018-03-08T22:40:59.496Z,0.68
2018-03-08T22:43:28.702Z,1.05
2018-03-08T22:45:58.680Z,0.95
2018-03-08T22:48:35.557Z,0.93
2018-03-08T22:51:05.840Z,0.80
2018-03-08T22:53:33.119Z,1.02
2018-03-08T22:56:00.721Z,1.08
2018-03-08T22:58:30.134Z,1.15
2018-03-08T23:00:59.831Z,1.25
2018-03-08T23:03:30.478Z,1.65
2018-03-08T23:05:57.831Z,1.48
2018-03-08T23:08:26.180Z,1.27
2018-03-08T23:10:54.463Z,1.10
2018-03-08T23:13:21.332Z,1.10
2018-03-08T23:15:48.312Z,1.73
2018-03-08T23:18:15.185Z,1.70
2018-03-08T23:20:42.179Z,1.50
2018-03-08T23:23:09.109Z,1.20
2018-03-08T23:25:35.974Z,1.15
2018-03-08T23:28:02.906Z,1.17
2018-03-08T23:30:29.858Z,1.50
2018-03-08T23:32:56.739Z,1.75
2018-03-08T23:35:23.599Z,2.00
2018-03-08T23:37:50.527Z,1.40
2018-03-08T23:40:17.386Z,1.55
2018-03-08T23:42:44.387Z,2.03
2018-03-08T23:45:11.262Z,1.25
2018-03-08T23:47:38.195Z,1.58
2018-03-08T23:50:05.127Z,1.33
2018-03-08T23:52:32.204Z,1.50
2018-03-08T23:54:59.100Z,2.10
2018-03-08T23:57:26.040Z,1.40
2018-03-08T23:59:52.907Z,1.67
